Time,TemperatureF,DewpointF,PressureIn,WindDirection,WindDirectionDegrees,WindSpeedMPH,WindSpeedGustMPH,Humidity,HourlyPrecipIn,Conditions,Clouds,dailyrainin,SoftwareType,DateUTC
2013-06-02 00:12:00,55.4,53.4,30.01,East,90,0.0,-999.0,93,-99.99,,,0.00,Acu-Link.com,2013-06-02 07:12:00,
2013-06-02 00:27:00,55.2,53.5,30.02,NNE,22,0.0,-999.0,94,-99.99,,,0.00,Acu-Link.com,2013-06-02 07:27:00,
2013-06-02 00:43:00,55.2,53.5,30.02,NE,45,0.0,-999.0,94,-99.99,,,0.00,Acu-Link.com,2013-06-02 07:43:00,
2013-06-02 00:58:00,55.2,53.8,30.00,West,270,0.0,-999.0,95,-99.99,,,0.00,Acu-Link.com,2013-06-02 07:58:00,
2013-06-02 01:15:00,55.2,53.8,30.00,North,0,0.0,-999.0,95,-99.99,,,0.00,Acu-Link.com,2013-06-02 08:15:00,
2013-06-02 01:30:00,55.2,53.8,30.01,ENE,67,0.0,-999.0,95,-99.99,,,0.00,Acu-Link.com,2013-06-02 08:30:00,
2013-06-02 01:46:00,55.2,53.8,30.00,WNW,292,0.0,-999.0,95,-99.99,,,0.00,Acu-Link.com,2013-06-02 08:46:00,
2013-06-02 02:01:00,55.2,53.8,30.00,NE,45,0.0,-999.0,95,-99.99,,,0.00,Acu-Link.com,2013-06-02 09:01:00,
2013-06-02 02:16:00,54.9,54.3,29.99,West,270,0.0,-999.0,98,-99.99,,,0.00,Acu-Link.com,2013-06-02 09:16:00,
2013-06-02 02:31:00,54.9,54.3,30.01,NNW,337,0.0,-999.0,98,-99.99,,,0.00,Acu-Link.com,2013-06-02 09:31:00,
2013-06-02 02:46:00,54.5,53.9,29.99,NNW,337,0.0,-999.0,98,-99.99,,,0.00,Acu-Link.com,2013-06-02 09:46:00,
2013-06-02 03:01:00,54.7,54.1,30.00,NE,45,0.0,-999.0,98,-99.99,,,0.00,Acu-Link.com,2013-06-02 10:01:00,
2013-06-02 03:17:00,54.7,54.1,30.00,SE,135,0.0,-999.0,98,-99.99,,,0.00,Acu-Link.com,2013-06-02 10:17:00,
2013-06-02 03:32:00,54.3,53.7,29.99,NNE,22,4.7,-999.0,98,-99.99,,,0.00,Acu-Link.com,2013-06-02 10:32:00,
2013-06-02 03:47:00,54.3,53.7,29.99,North,0,0.0,-999.0,98,-99.99,,,0.00,Acu-Link.com,2013-06-02 10:47:00,
2013-06-02 04:02:00,54.3,53.7,30.00,NE,45,1.7,-999.0,98,-99.99,,,0.00,Acu-Link.com,2013-06-02 11:02:00,
2013-06-02 04:18:00,54.1,53.5,30.00,NNW,337,0.0,-999.0,98,-99.99,,,0.01,Acu-Link.com,2013-06-02 11:18:00,
2013-06-02 04:33:00,54.1,53.5,29.98,NE,45,0.0,-999.0,98,-99.99,,,0.01,Acu-Link.com,2013-06-02 11:33:00,
2013-06-02 04:48:00,54.1,53.5,29.98,NNE,22,0.0,-999.0,98,-99.99,,,0.01,Acu-Link.com,2013-06-02 11:48:00,
2013-06-02 05:04:00,54.1,53.5,30.00,NE,45,0.0,-999.0,98,-99.99,,,0.01,Acu-Link.com,2013-06-02 12:04:00,
2013-06-02 05:19:00,54.0,53.4,29.99,North,0,0.0,-999.0,98,-99.99,,,0.02,Acu-Link.com,2013-06-02 12:19:00,
2013-06-02 05:34:00,54.0,53.4,29.99,NNE,22,1.7,-999.0,98,-99.99,,,0.02,Acu-Link.com,2013-06-02 12:34:00,
2013-06-02 05:49:00,54.0,53.4,30.00,West,270,1.1,-999.0,98,-99.99,,,0.03,Acu-Link.com,2013-06-02 12:49:00,
2013-06-02 06:05:00,53.6,53.0,30.00,NNW,337,2.7,-999.0,98,-99.99,,,0.05,Acu-Link.com,2013-06-02 13:05:00,
2013-06-02 06:20:00,53.4,52.8,30.00,NNE,22,0.0,-999.0,98,-99.99,,,0.07,Acu-Link.com,2013-06-02 13:20:00,
2013-06-02 06:35:00,53.2,52.6,30.00,West,270,1.7,-999.0,98,-99.99,,,0.08,Acu-Link.com,2013-06-02 13:35:00,
2013-06-02 06:50:00,53.4,52.8,30.00,ESE,112,1.1,-999.0,98,-99.99,,,0.08,Acu-Link.com,2013-06-02 13:50:00,
2013-06-02 07:06:00,53.8,53.2,30.00,NE,45,3.2,-999.0,98,-99.99,,,0.08,Acu-Link.com,2013-06-02 14:06:00,
2013-06-02 07:21:00,53.8,53.2,30.00,ENE,67,1.7,-999.0,98,-99.99,,,0.09,Acu-Link.com,2013-06-02 14:21:00,
2013-06-02 07:36:00,54.3,53.7,30.00,NNE,22,2.7,-999.0,98,-99.99,,,0.09,Acu-Link.com,2013-06-02 14:36:00,
2013-06-02 07:52:00,54.9,54.1,30.01,NE,45,4.7,-999.0,97,-99.99,,,0.09,Acu-Link.com,2013-06-02 14:52:00,
2013-06-02 08:07:00,55.0,53.9,30.02,North,0,2.7,-999.0,96,-99.99,,,0.09,Acu-Link.com,2013-06-02 15:07:00,
2013-06-02 08:22:00,55.9,54.5,30.01,ESE,112,2.2,-999.0,95,-99.99,,,0.09,Acu-Link.com,2013-06-02 15:22:00,
2013-06-02 08:37:00,56.7,55.0,30.00,NNW,337,1.1,-999.0,94,-99.99,,,0.09,Acu-Link.com,2013-06-02 15:37:00,
2013-06-02 08:53:00,56.7,54.7,30.00,NNE,22,5.8,-999.0,93,-99.99,,,0.09,Acu-Link.com,2013-06-02 15:53:00,
2013-06-02 09:08:00,57.7,56.0,29.99,NNW,337,2.7,-999.0,94,-99.99,,,0.09,Acu-Link.com,2013-06-02 16:08:00,
2013-06-02 09:23:00,57.4,54.5,30.01,SW,225,2.7,-999.0,90,-99.99,,,0.09,Acu-Link.com,2013-06-02 16:23:00,
2013-06-02 09:39:00,57.9,55.6,29.99,North,0,4.7,-999.0,92,-99.99,,,0.09,Acu-Link.com,2013-06-02 16:39:00,
2013-06-02 09:54:00,57.4,54.8,30.00,NNE,22,3.7,-999.0,91,-99.99,,,0.09,Acu-Link.com,2013-06-02 16:54:00,
2013-06-02 10:09:00,58.3,55.7,30.00,NE,45,3.7,-999.0,91,-99.99,,,0.09,Acu-Link.com,2013-06-02 17:09:00,
2013-06-02 10:24:00,58.5,55.0,30.00,WNW,292,2.7,-999.0,88,-99.99,,,0.09,Acu-Link.com,2013-06-02 17:24:00,
2013-06-02 10:40:00,58.3,55.1,29.99,WNW,292,2.7,-999.0,89,-99.99,,,0.09,Acu-Link.com,2013-06-02 17:40:00,
2013-06-02 10:55:00,58.8,55.6,29.99,SSE,157,1.7,-999.0,89,-99.99,,,0.09,Acu-Link.com,2013-06-02 17:55:00,
2013-06-02 11:10:00,60.3,56.1,29.99,NNW,337,2.2,-999.0,86,-99.99,,,0.09,Acu-Link.com,2013-06-02 18:10:00,
2013-06-02 11:25:00,61.2,57.0,29.99,SSW,202,1.7,-999.0,86,-99.99,,,0.09,Acu-Link.com,2013-06-02 18:25:00,
2013-06-02 11:40:00,62.1,56.5,29.98,NW,315,4.7,-999.0,82,-99.99,,,0.09,Acu-Link.com,2013-06-02 18:40:00,
2013-06-02 11:56:00,63.1,57.8,29.98,NE,45,2.7,-999.0,83,-99.99,,,0.09,Acu-Link.com,2013-06-02 18:56:00,
2013-06-02 12:11:00,64.4,58.1,29.97,NNE,22,4.2,-999.0,80,-99.99,,,0.09,Acu-Link.com,2013-06-02 19:11:00,
2013-06-02 12:26:00,66.6,59.2,29.98,SW,225,2.2,-999.0,77,-99.99,,,0.09,Acu-Link.com,2013-06-02 19:26:00,
2013-06-02 12:41:00,65.7,58.3,29.96,ENE,67,5.8,-999.0,77,-99.99,,,0.09,Acu-Link.com,2013-06-02 19:41:00,
2013-06-02 12:57:00,67.5,59.3,29.96,SW,225,2.7,-999.0,75,-99.99,,,0.09,Acu-Link.com,2013-06-02 19:57:00,
2013-06-02 13:12:00,67.1,58.9,29.98,SSE,157,2.7,-999.0,75,-99.99,,,0.09,Acu-Link.com,2013-06-02 20:12:00,
2013-06-02 13:27:00,67.8,58.8,29.95,NNW,337,3.7,-999.0,73,-99.99,,,0.09,Acu-Link.com,2013-06-02 20:27:00,
2013-06-02 13:42:00,67.1,58.9,29.96,West,270,4.2,-999.0,75,-99.99,,,0.09,Acu-Link.com,2013-06-02 20:42:00,
2013-06-02 13:57:00,68.0,58.6,29.97,NNW,337,3.2,-999.0,72,-99.99,,,0.09,Acu-Link.com,2013-06-02 20:57:00,
2013-06-02 14:13:00,67.8,58.4,29.96,East,90,3.2,-999.0,72,-99.99,,,0.09,Acu-Link.com,2013-06-02 21:13:00,
2013-06-02 14:28:00,67.8,58.0,29.96,NNW,337,8.3,-999.0,71,-99.99,,,0.09,Acu-Link.com,2013-06-02 21:28:00,
2013-06-02 14:43:00,66.7,57.0,29.96,NNW,337,3.7,-999.0,71,-99.99,,,0.09,Acu-Link.com,2013-06-02 21:43:00,
2013-06-02 14:58:00,66.6,57.3,29.97,West,270,8.3,-999.0,72,-99.99,,,0.09,Acu-Link.com,2013-06-02 21:58:00,
2013-06-02 15:13:00,66.7,56.6,29.96,SW,225,6.8,-999.0,70,-99.99,,,0.09,Acu-Link.com,2013-06-02 22:13:00,
2013-06-02 15:28:00,65.7,56.4,29.96,WSW,247,5.8,-999.0,72,-99.99,,,0.09,Acu-Link.com,2013-06-02 22:28:00,
2013-06-02 15:43:00,65.5,55.8,29.96,ENE,67,5.3,-999.0,71,-99.99,,,0.09,Acu-Link.com,2013-06-02 22:43:00,
2013-06-02 15:58:00,65.1,55.5,29.95,North,0,8.9,-999.0,71,-99.99,,,0.09,Acu-Link.com,2013-06-02 22:58:00,
2013-06-02 16:13:00,64.6,55.4,29.97,NNE,22,4.2,-999.0,72,-99.99,,,0.09,Acu-Link.com,2013-06-02 23:13:00,
2013-06-02 16:28:00,64.4,55.2,29.97,NNW,337,4.7,-999.0,72,-99.99,,,0.09,Acu-Link.com,2013-06-02 23:28:00,
2013-06-02 16:44:00,64.0,55.5,29.96,NNW,337,9.4,-999.0,74,-99.99,,,0.09,Acu-Link.com,2013-06-02 23:44:00,
2013-06-02 16:59:00,63.7,54.9,29.96,NE,45,6.8,-999.0,73,-99.99,,,0.09,Acu-Link.com,2013-06-02 23:59:00,
2013-06-02 17:14:00,63.1,54.3,29.95,NNE,22,9.9,-999.0,73,-99.99,,,0.09,Acu-Link.com,2013-06-03 00:14:00,
2013-06-02 17:29:00,63.9,55.1,29.95,SSE,157,5.3,-999.0,73,-99.99,,,0.09,Acu-Link.com,2013-06-03 00:29:00,
2013-06-02 17:44:00,63.5,54.7,29.95,NNE,22,5.8,-999.0,73,-99.99,,,0.09,Acu-Link.com,2013-06-03 00:44:00,
2013-06-02 17:59:00,63.9,54.3,29.95,North,0,8.3,-999.0,71,-99.99,,,0.09,Acu-Link.com,2013-06-03 00:59:00,
2013-06-02 18:15:00,62.4,53.3,29.95,SE,135,5.3,-999.0,72,-99.99,,,0.09,Acu-Link.com,2013-06-03 01:15:00,
2013-06-02 18:30:00,63.1,53.9,29.97,NE,45,3.7,-999.0,72,-99.99,,,0.09,Acu-Link.com,2013-06-03 01:30:00,
2013-06-02 18:45:00,61.3,52.9,29.96,NE,45,4.7,-999.0,74,-99.99,,,0.09,Acu-Link.com,2013-06-03 01:45:00,
2013-06-02 19:00:00,59.5,52.3,29.97,SSE,157,7.3,-999.0,77,-99.99,,,0.09,Acu-Link.com,2013-06-03 02:00:00,
2013-06-02 19:16:00,59.2,52.0,29.95,ENE,67,5.8,-999.0,77,-99.99,,,0.09,Acu-Link.com,2013-06-03 02:16:00,
2013-06-02 19:31:00,59.0,52.1,29.96,WSW,247,2.7,-999.0,78,-99.99,,,0.09,Acu-Link.com,2013-06-03 02:31:00,
2013-06-02 19:46:00,57.7,51.2,29.97,NNE,22,5.3,-999.0,79,-99.99,,,0.09,Acu-Link.com,2013-06-03 02:46:00,
2013-06-02 20:02:00,56.7,50.9,29.97,NE,45,7.8,-999.0,81,-99.99,,,0.09,Acu-Link.com,2013-06-03 03:02:00,
2013-06-02 20:17:00,56.1,51.0,29.97,NNE,22,2.2,-999.0,83,-99.99,,,0.09,Acu-Link.com,2013-06-03 03:17:00,
2013-06-02 20:32:00,54.9,50.5,29.98,SSW,202,5.8,-999.0,85,-99.99,,,0.09,Acu-Link.com,2013-06-03 03:32:00,
2013-06-02 20:47:00,54.3,50.2,29.98,North,0,4.7,-999.0,86,-99.99,,,0.09,Acu-Link.com,2013-06-03 03:47:00,
2013-06-02 21:02:00,54.0,50.2,29.99,ESE,112,3.7,-999.0,87,-99.99,,,0.09,Acu-Link.com,2013-06-03 04:02:00,
2013-06-02 21:17:00,53.6,49.8,29.98,NNE,22,3.2,-999.0,87,-99.99,,,0.09,Acu-Link.com,2013-06-03 04:17:00,
2013-06-02 21:32:00,53.6,50.4,29.99,NNE,22,2.7,-999.0,89,-99.99,,,0.09,Acu-Link.com,2013-06-03 04:32:00,
2013-06-02 21:47:00,53.2,50.0,29.99,ESE,112,1.7,-999.0,89,-99.99,,,0.09,Acu-Link.com,2013-06-03 04:47:00,
2013-06-02 22:02:00,53.2,50.0,30.00,North,0,2.7,-999.0,89,-99.99,,,0.09,Acu-Link.com,2013-06-03 05:02:00,
2013-06-02 22:17:00,53.4,50.5,30.00,North,0,2.2,-999.0,90,-99.99,,,0.09,Acu-Link.com,2013-06-03 05:17:00,
2013-06-02 22:32:00,53.4,50.2,30.02,North,0,2.7,-999.0,89,-99.99,,,0.09,Acu-Link.com,2013-06-03 05:32:00,
2013-06-02 22:48:00,53.1,49.9,29.99,NE,45,0.0,-999.0,89,-99.99,,,0.09,Acu-Link.com,2013-06-03 05:48:00,
2013-06-02 23:03:00,52.5,49.9,30.01,North,0,0.0,-999.0,91,-99.99,,,0.09,Acu-Link.com,2013-06-03 06:03:00,
2013-06-02 23:18:00,51.6,49.1,30.01,ESE,112,0.0,-999.0,91,-99.99,,,0.09,Acu-Link.com,2013-06-03 06:18:00,
2013-06-02 23:33:00,50.7,48.8,30.00,ENE,67,0.0,-999.0,93,-99.99,,,0.09,Acu-Link.com,2013-06-03 06:33:00,
2013-06-02 23:49:00,50.0,48.6,30.00,SE,135,0.0,-999.0,95,-99.99,,,0.09,Acu-Link.com,2013-06-03 06:49:00,